Culleredo, Spain
Current Conditions -  °F | °C
As of 8:00 PM on Monday 20 Oct 2014 (Local Time) from LECO Reporting Station
Haze Haze  
Wind Chill: 66°   Ceiling: Unl
Heat Index: 66°   Visibility: 3mi
Dew Point: 64°   Wind: 0mph
Humidity: 94%   Direction: NA
Pressure: 30.18"   Gusts: NA
Location:  43.29°N, 8.39°W
Report Text: LECO 201800Z 00000KT 5000 BR NSC 19/18 Q1022 NOSIG
Loading
Personal Weather Stations






























Interactive Weather Map New forecast layout! Learn more

10-Day Weather Forecast

Advertisements
Track Severe Weather on mobile